Time;durP1;ratioP1;P1;durP2;ratioP2;P2;SDS_P1;SDS_P2;PMS_P1;PMS_P2;Temp;Humidity;BMP_temperature;BMP_pressure;BME280_temperature;BME280_humidity;BME280_pressure;Samples;Min_cycle;Max_cycle;Signal;HPM_P1;HPM_P2
2022/08/09 00:00:57;;;;;;;1.00;1.00;;;24.90;61.60;;;;;;5109472;27;43983;-73
2022/08/09 00:03:25;;;;;;;0.90;0.90;;;24.90;61.80;;;;;;5091173;27;44094;-72
2022/08/09 00:06:13;;;;;;;1.00;1.00;;;24.80;62.30;;;;;;5090351;27;45845;-73
2022/08/09 00:08:51;;;;;;;0.90;0.90;;;24.80;62.40;;;;;;5089728;27;44504;-73
2022/08/09 00:11:24;;;;;;;0.80;0.80;;;24.70;62.40;;;;;;5109292;27;43348;-74
2022/08/09 00:14:12;;;;;;;0.70;0.70;;;24.70;62.30;;;;;;5109363;27;44069;-72
2022/08/09 00:17:03;;;;;;;0.83;0.83;;;24.60;63.00;;;;;;5109366;27;44419;-74
2022/08/09 00:19:31;;;;;;;0.90;0.90;;;24.70;62.90;;;;;;5108781;27;43870;-73
2022/08/09 00:22:01;;;;;;;0.90;0.90;;;24.70;62.50;;;;;;5108660;27;43992;-74
2022/08/09 00:24:32;;;;;;;1.00;1.00;;;24.80;62.10;;;;;;5109368;27;43898;-73
2022/08/09 00:27:00;;;;;;;1.00;1.00;;;24.90;61.80;;;;;;5089901;27;46731;-72
2022/08/09 00:29:28;;;;;;;0.90;0.90;;;25.00;61.70;;;;;;5108725;27;44152;-73
2022/08/09 00:32:16;;;;;;;1.00;1.00;;;24.90;61.70;;;;;;5108655;27;43975;-72
2022/08/09 00:34:54;;;;;;;0.90;0.90;;;24.90;62.20;;;;;;5090652;27;44035;-73
2022/08/09 00:37:22;;;;;;;0.90;0.90;;;24.80;62.40;;;;;;5089700;27;43989;-74
2022/08/09 00:39:52;;;;;;;1.00;1.00;;;24.80;62.40;;;;;;5108615;27;43836;-74
2022/08/09 00:42:40;;;;;;;0.90;0.90;;;24.70;62.30;;;;;;5108215;27;44010;-73
2022/08/09 00:45:28;;;;;;;0.90;0.90;;;24.70;62.70;;;;;;5090659;27;43970;-72
2022/08/09 00:47:56;;;;;;;0.80;0.80;;;24.60;63.60;;;;;;5089810;27;46872;-73
2022/08/09 00:50:26;;;;;;;0.70;0.70;;;24.60;62.90;;;;;;5108592;27;44106;-72
2022/08/09 00:52:54;;;;;;;0.80;0.80;;;24.60;62.60;;;;;;5101739;27;43932;-73
2022/08/09 00:55:25;;;;;;;1.00;1.00;;;24.60;62.80;;;;;;5102097;27;43447;-73
2022/08/09 00:58:13;;;;;;;0.73;0.73;;;24.50;63.30;;;;;;5105073;27;43862;-71
2022/08/09 01:00:56;;;;;;;1.10;1.10;;;24.60;63.20;;;;;;5089742;27;44394;-74
2022/08/09 01:03:31;;;;;;;0.90;0.90;;;24.70;62.80;;;;;;5108579;27;43970;-73
2022/08/09 01:06:09;;;;;;;0.97;0.97;;;24.80;62.40;;;;;;5108444;27;44005;-73
2022/08/09 01:08:48;;;;;;;0.83;0.83;;;24.90;61.90;;;;;;5107967;27;44085;-72
2022/08/09 01:11:24;;;;;;;0.90;0.90;;;25.00;61.60;;;;;;5108127;27;43996;-73
2022/08/09 01:13:56;;;;;;;0.80;0.80;;;25.00;61.80;;;;;;5108056;27;43936;-73
2022/08/09 01:16:32;;;;;;;0.80;0.80;;;24.90;62.10;;;;;;5107870;27;43447;-75
2022/08/09 01:19:05;;;;;;;0.80;0.80;;;24.80;62.20;;;;;;5090918;27;44003;-72
2022/08/09 01:21:45;;;;;;;0.83;0.83;;;24.80;62.30;;;;;;5107824;27;43474;-73
2022/08/09 01:24:22;;;;;;;0.90;0.90;;;24.70;62.20;;;;;;5089410;27;43860;-73
2022/08/09 01:26:57;;;;;;;0.80;0.80;;;24.70;62.50;;;;;;5108223;27;43756;-73
2022/08/09 01:29:31;;;;;;;0.90;0.90;;;24.70;63.70;;;;;;5107852;27;44997;-72
2022/08/09 01:32:19;;;;;;;1.03;1.03;;;24.70;62.90;;;;;;5107764;27;44082;-72
2022/08/09 01:35:02;;;;;;;0.90;0.90;;;24.60;62.70;;;;;;5089380;27;43869;-72
2022/08/09 01:37:45;;;;;;;0.90;0.90;;;24.60;63.00;;;;;;5108043;27;43481;-73
2022/08/09 01:40:33;;;;;;;1.10;1.10;;;24.50;63.30;;;;;;5107407;27;44920;-73
2022/08/09 01:43:03;;;;;;;0.80;0.80;;;24.60;63.10;;;;;;5088171;27;44023;-72
2022/08/09 01:45:33;;;;;;;1.00;1.00;;;24.70;62.70;;;;;;5101344;27;44060;-73
2022/08/09 01:48:11;;;;;;;0.90;0.90;;;24.80;62.40;;;;;;5108078;27;43914;-73
2022/08/09 01:50:42;;;;;;;1.00;1.00;;;25.00;61.90;;;;;;5107562;27;44764;-72
2022/08/09 01:53:15;;;;;;;0.90;0.90;;;25.00;61.60;;;;;;5107264;27;43836;-73
2022/08/09 01:55:46;;;;;;;0.90;0.90;;;25.00;61.60;;;;;;5107613;27;43944;-72
2022/08/09 01:58:15;;;;;;;1.00;1.00;;;24.90;61.90;;;;;;5089325;27;43646;-73
2022/08/09 02:00:46;;;;;;;0.80;0.80;;;24.80;62.20;;;;;;5107251;27;44344;-73
2022/08/09 02:03:17;;;;;;;0.77;0.77;;;24.80;62.30;;;;;;5107323;27;43918;-73
2022/08/09 02:05:46;;;;;;;0.83;0.83;;;24.80;62.30;;;;;;5107485;27;43394;-72
2022/08/09 02:08:35;;;;;;;1.10;1.10;;;24.70;62.30;;;;;;5089148;27;44181;-74
2022/08/09 02:11:23;;;;;;;0.80;0.80;;;24.70;63.00;;;;;;5088728;27;45576;-73
2022/08/09 02:13:52;;;;;;;0.90;0.90;;;24.60;62.90;;;;;;5106961;27;44276;-74
2022/08/09 02:16:35;;;;;;;1.00;1.00;;;24.60;62.80;;;;;;5107449;27;43938;-72
2022/08/09 02:19:23;;;;;;;1.00;1.00;;;24.60;62.80;;;;;;5089288;27;44234;-72
2022/08/09 02:22:09;;;;;;;0.90;0.90;;;24.50;63.20;;;;;;5107118;27;43943;-73
2022/08/09 02:24:37;;;;;;;0.93;0.93;;;24.60;63.80;;;;;;5106879;27;44024;-73
2022/08/09 02:27:08;;;;;;;0.90;0.90;;;24.70;62.60;;;;;;5107316;27;43838;-74
2022/08/09 02:29:42;;;;;;;1.00;1.00;;;24.80;62.20;;;;;;5088954;27;43932;-73
2022/08/09 02:32:11;;;;;;;1.10;1.10;;;24.90;61.90;;;;;;5109096;27;45018;-73
2022/08/09 02:34:40;;;;;;;0.90;0.90;;;25.00;61.60;;;;;;5091749;27;44526;-73
2022/08/09 02:37:21;;;;;;;0.70;0.70;;;25.00;61.60;;;;;;5110597;27;44052;-72
2022/08/09 02:40:01;;;;;;;0.90;0.90;;;24.90;62.00;;;;;;5114576;27;43401;-73
2022/08/09 02:42:33;;;;;;;1.00;1.00;;;24.80;62.00;;;;;;5127676;27;43904;-72
2022/08/09 02:45:05;;;;;;;1.00;1.00;;;24.80;62.20;;;;;;5110282;27;43996;-73
2022/08/09 02:47:33;;;;;;;1.50;0.80;;;24.70;62.10;;;;;;5110751;27;43796;-73
2022/08/09 02:50:23;;;;;;;1.00;1.00;;;24.70;62.50;;;;;;5110801;27;43979;-73
2022/08/09 02:52:55;;;;;;;3.50;1.00;;;24.60;62.80;;;;;;5130238;27;44825;-72
2022/08/09 02:55:23;;;;;;;1.33;1.00;;;24.60;62.70;;;;;;5070811;28;45794;-73
2022/08/09 02:58:11;;;;;;;0.93;0.93;;;24.60;62.50;;;;;;5087103;27;44058;-73
2022/08/09 03:01:00;;;;;;;1.13;1.10;;;24.50;63.00;;;;;;5110466;27;43924;-73
2022/08/09 03:03:32;;;;;;;0.90;0.90;;;24.50;63.00;;;;;;5110064;27;44020;-73
2022/08/09 03:06:20;;;;;;;0.90;0.90;;;24.60;62.70;;;;;;5109904;27;44020;-73
2022/08/09 03:08:49;;;;;;;0.87;0.87;;;24.70;62.20;;;;;;5110083;27;43997;-72
2022/08/09 03:11:20;;;;;;;0.90;0.90;;;24.90;61.90;;;;;;5110424;27;44114;-74
2022/08/09 03:14:08;;;;;;;0.97;0.97;;;25.00;61.40;;;;;;5109638;27;43893;-73
2022/08/09 03:16:40;;;;;;;1.00;1.00;;;25.00;60.90;;;;;;5091087;27;44748;-73
2022/08/09 03:19:15;;;;;;;0.90;0.90;;;25.00;61.10;;;;;;5109903;27;43856;-74
2022/08/09 03:22:03;;;;;;;0.90;0.90;;;24.90;61.50;;;;;;5106590;27;43999;-72
2022/08/09 03:24:31;;;;;;;1.00;1.00;;;24.80;61.70;;;;;;5090885;27;45796;-73
2022/08/09 03:27:19;;;;;;;0.90;0.90;;;24.80;62.00;;;;;;5109578;27;44002;-73
2022/08/09 03:29:49;;;;;;;1.00;1.00;;;24.70;62.00;;;;;;5109611;27;43901;-72
2022/08/09 03:32:29;;;;;;;0.93;0.93;;;24.60;62.40;;;;;;5091480;27;43948;-74
2022/08/09 03:34:58;;;;;;;0.90;0.90;;;24.60;62.50;;;;;;5109525;27;45083;-74
2022/08/09 03:37:27;;;;;;;1.00;1.00;;;24.60;62.50;;;;;;5109775;27;44064;-72
2022/08/09 03:40:15;;;;;;;0.97;0.93;;;24.60;62.50;;;;;;5109560;27;44061;-74
2022/08/09 03:42:45;;;;;;;0.90;0.90;;;24.50;63.00;;;;;;5089855;27;43949;-73
2022/08/09 03:45:13;;;;;;;1.10;1.10;;;24.50;62.80;;;;;;5113443;27;44226;-73
2022/08/09 03:47:43;;;;;;;0.80;0.80;;;24.60;62.40;;;;;;5129221;27;43942;-74
2022/08/09 03:50:14;;;;;;;0.90;0.90;;;24.70;62.10;;;;;;5129356;27;44005;-73
2022/08/09 03:52:54;;;;;;;0.90;0.90;;;24.80;61.50;;;;;;5111245;27;43935;-73
2022/08/09 03:55:24;;;;;;;1.27;0.90;;;25.00;61.20;;;;;;5102763;27;44044;-73
2022/08/09 03:57:53;;;;;;;1.10;1.10;;;24.90;61.00;;;;;;5102870;27;43954;-74
2022/08/09 04:00:43;;;;;;;1.00;1.00;;;24.90;62.00;;;;;;5109345;27;43998;-73
2022/08/09 04:03:12;;;;;;;1.00;1.00;;;24.80;61.70;;;;;;5090857;27;44094;-72
2022/08/09 04:05:51;;;;;;;0.87;0.87;;;24.80;61.80;;;;;;5108851;27;44888;-73
2022/08/09 04:08:23;;;;;;;0.90;0.90;;;24.70;61.80;;;;;;5109056;27;43899;-72
2022/08/09 04:10:55;;;;;;;0.83;0.83;;;24.70;62.00;;;;;;5109341;27;44047;-73
2022/08/09 04:13:28;;;;;;;0.90;0.90;;;24.60;62.50;;;;;;5103263;27;44022;-73
2022/08/09 04:16:18;;;;;;;0.80;0.80;;;24.60;62.50;;;;;;5105210;27;44073;-72
2022/08/09 04:18:49;;;;;;;0.90;0.90;;;24.60;62.50;;;;;;5109107;27;44045;-73
2022/08/09 04:21:18;;;;;;;1.00;1.00;;;24.50;62.30;;;;;;5119111;27;43954;-73
2022/08/09 04:23:47;;;;;;;1.07;1.07;;;24.50;62.90;;;;;;5129232;27;43960;-72
2022/08/09 04:26:24;;;;;;;0.90;0.90;;;24.50;62.70;;;;;;5117446;27;44650;-74
2022/08/09 04:29:05;;;;;;;0.97;0.97;;;24.60;62.30;;;;;;5108894;27;43908;-73
2022/08/09 04:31:41;;;;;;;0.90;0.90;;;24.70;62.50;;;;;;5103659;27;43973;-73
2022/08/09 04:34:15;;;;;;;0.83;0.83;;;24.90;61.50;;;;;;5109402;27;43959;-73
2022/08/09 04:36:58;;;;;;;0.90;0.90;;;24.90;61.00;;;;;;5108912;27;43919;-73
2022/08/09 04:39:27;;;;;;;1.03;1.03;;;24.90;61.00;;;;;;5119893;27;44291;-73
2022/08/09 04:41:58;;;;;;;0.80;0.80;;;24.80;61.30;;;;;;5128445;27;43884;-73
2022/08/09 04:44:29;;;;;;;1.03;1.03;;;24.80;61.60;;;;;;5110045;27;44061;-73
2022/08/09 04:46:57;;;;;;;0.87;0.87;;;24.70;61.70;;;;;;5128625;27;44789;-73
2022/08/09 04:49:36;;;;;;;0.90;0.90;;;24.70;61.70;;;;;;5109667;27;43389;-73
2022/08/09 04:52:22;;;;;;;1.10;1.10;;;24.70;61.90;;;;;;5109574;27;44018;-74
2022/08/09 04:54:59;;;;;;;1.00;1.00;;;24.60;62.30;;;;;;5111765;27;43966;-73
2022/08/09 04:57:28;;;;;;;1.00;1.00;;;24.60;62.00;;;;;;5108740;27;43909;-73
2022/08/09 05:00:16;;;;;;;0.90;0.90;;;24.70;61.70;;;;;;5108525;27;43951;-73
2022/08/09 05:02:44;;;;;;;0.83;0.83;;;24.80;61.30;;;;;;5122074;27;44006;-74
2022/08/09 05:05:22;;;;;;;0.90;0.90;;;24.90;61.20;;;;;;5108747;27;43983;-73
2022/08/09 05:08:12;;;;;;;0.80;0.80;;;24.90;61.40;;;;;;5108266;27;43853;-73
2022/08/09 05:10:41;;;;;;;0.97;0.97;;;24.80;61.50;;;;;;5108203;27;44177;-74
2022/08/09 05:13:09;;;;;;;0.80;0.80;;;24.70;61.90;;;;;;5126126;27;43887;-73
2022/08/09 05:15:38;;;;;;;1.00;1.00;;;24.70;62.00;;;;;;5128436;27;44120;-73
2022/08/09 05:18:15;;;;;;;1.00;1.00;;;24.70;61.90;;;;;;5097333;27;45596;-73
2022/08/09 05:21:04;;;;;;;1.00;1.00;;;24.60;61.90;;;;;;5102758;27;43797;-72
2022/08/09 05:23:51;;;;;;;0.90;0.90;;;24.60;62.50;;;;;;5108140;27;44048;-73
2022/08/09 05:26:29;;;;;;;1.00;1.00;;;24.60;62.40;;;;;;5089687;27;44077;-73
2022/08/09 05:29:04;;;;;;;0.80;0.80;;;24.70;61.90;;;;;;5088874;27;45835;-73
2022/08/09 05:31:45;;;;;;;0.90;0.90;;;24.80;61.30;;;;;;5084522;27;44810;-73
2022/08/09 05:34:24;;;;;;;1.00;1.00;;;24.90;61.00;;;;;;5111515;27;43935;-73
2022/08/09 05:36:59;;;;;;;1.10;1.10;;;24.90;61.10;;;;;;5128192;27;44005;-73
2022/08/09 05:39:32;;;;;;;0.97;0.97;;;24.80;61.10;;;;;;5127594;27;43751;-74
2022/08/09 05:42:10;;;;;;;1.07;1.07;;;24.80;61.40;;;;;;5127203;27;43493;-73
2022/08/09 05:44:49;;;;;;;1.00;1.00;;;24.70;61.40;;;;;;5127861;27;43426;-73
2022/08/09 05:47:18;;;;;;;1.03;1.03;;;24.70;61.30;;;;;;5120419;27;43870;-73
2022/08/09 05:49:49;;;;;;;1.03;1.03;;;24.70;61.30;;;;;;5115905;27;45017;-73
2022/08/09 05:52:39;;;;;;;1.00;1.00;;;24.60;62.00;;;;;;5127553;27;44075;-73
2022/08/09 05:55:09;;;;;;;1.20;1.20;;;24.60;61.90;;;;;;5127512;27;43887;-74
2022/08/09 05:57:48;;;;;;;1.00;1.00;;;24.50;61.40;;;;;;5109066;27;43964;-73
2022/08/09 06:00:24;;;;;;;1.20;1.20;;;24.50;61.30;;;;;;5113726;27;45544;-73
2022/08/09 06:02:52;;;;;;;1.00;1.00;;;24.50;62.20;;;;;;5107480;27;44069;-73
2022/08/09 06:05:24;;;;;;;1.17;1.17;;;24.50;61.90;;;;;;5122340;27;44036;-72
2022/08/09 06:08:14;;;;;;;1.00;1.00;;;24.60;61.30;;;;;;5102343;27;44022;-74
2022/08/09 06:10:52;;;;;;;1.03;1.03;;;24.70;60.80;;;;;;5092294;27;45347;-73
2022/08/09 06:13:20;;;;;;;1.17;1.10;;;24.90;60.50;;;;;;5110979;27;43926;-73
2022/08/09 06:15:48;;;;;;;1.10;1.10;;;25.00;60.10;;;;;;5110998;27;43875;-73
2022/08/09 06:18:19;;;;;;;1.20;1.13;;;25.00;60.20;;;;;;5105446;27;43979;-73
2022/08/09 06:20:52;;;;;;;1.00;1.00;;;24.90;60.30;;;;;;5130897;27;43980;-73
2022/08/09 06:23:27;;;;;;;1.13;1.13;;;24.80;60.70;;;;;;5130876;27;43996;-73
2022/08/09 06:26:15;;;;;;;1.23;1.20;;;24.80;60.80;;;;;;5095034;27;44047;-72
2022/08/09 06:28:48;;;;;;;1.00;1.00;;;24.70;60.70;;;;;;5092284;27;44014;-74
2022/08/09 06:31:31;;;;;;;1.10;1.10;;;24.70;60.70;;;;;;5123907;27;44055;-72
2022/08/09 06:34:19;;;;;;;1.10;1.10;;;24.60;61.50;;;;;;5130615;27;43907;-74
2022/08/09 06:36:49;;;;;;;1.07;1.07;;;24.60;61.40;;;;;;5130603;27;43969;-73
2022/08/09 06:39:28;;;;;;;1.17;1.17;;;24.60;61.20;;;;;;5131073;27;43834;-73
2022/08/09 06:42:15;;;;;;;1.37;1.37;;;24.50;61.00;;;;;;5111194;27;46038;-72
2022/08/09 06:44:46;;;;;;;1.30;1.20;;;24.50;61.80;;;;;;5092692;27;44027;-73
2022/08/09 06:47:21;;;;;;;1.10;1.10;;;24.50;61.80;;;;;;5111743;27;43965;-73
2022/08/09 06:49:50;;;;;;;1.20;1.20;;;24.60;61.20;;;;;;5130456;27;43955;-73
2022/08/09 06:52:44;;;;;;;1.10;1.10;;;24.70;60.90;;;;;;5112330;27;43910;-73
2022/08/09 06:55:16;;;;;;;1.27;1.27;;;24.80;60.20;;;;;;5110579;27;44042;-74
2022/08/09 06:57:47;;;;;;;1.10;1.10;;;24.90;59.90;;;;;;5110526;27;44055;-73
2022/08/09 07:00:31;;;;;;;1.10;1.10;;;25.00;59.90;;;;;;5110832;27;43406;-73
2022/08/09 07:03:19;;;;;;;1.20;1.20;;;24.90;59.80;;;;;;5124033;27;45047;-73
2022/08/09 07:05:56;;;;;;;1.10;1.10;;;24.80;60.30;;;;;;5115836;27;43970;-73
2022/08/09 07:08:31;;;;;;;1.07;1.07;;;24.80;60.20;;;;;;5111630;27;43994;-72
2022/08/09 07:11:03;;;;;;;1.30;1.30;;;24.70;60.30;;;;;;5124211;27;43412;-73
2022/08/09 07:13:33;;;;;;;1.80;1.30;;;24.70;60.50;;;;;;5082547;27;44909;-74
2022/08/09 07:16:21;;;;;;;1.10;1.10;;;24.60;61.20;;;;;;5110988;27;44777;-73
2022/08/09 07:19:10;;;;;;;1.10;1.10;;;24.60;61.20;;;;;;5111458;27;44085;-73
2022/08/09 07:21:45;;;;;;;1.20;1.20;;;24.60;60.80;;;;;;5130383;27;44014;-72
2022/08/09 07:24:24;;;;;;;1.20;1.20;;;24.50;60.80;;;;;;5097489;27;44068;-74
2022/08/09 07:27:08;;;;;;;1.20;1.20;;;24.50;61.50;;;;;;5129674;27;43905;-72
2022/08/09 07:29:54;;;;;;;1.30;1.10;;;24.50;61.10;;;;;;5130150;27;43994;-73
2022/08/09 07:32:25;;;;;;;1.30;1.30;;;24.60;60.50;;;;;;5117992;27;43376;-74
2022/08/09 07:35:02;;;;;;;1.27;1.27;;;24.70;60.00;;;;;;5129398;27;44725;-72
2022/08/09 07:37:39;;;;;;;1.47;1.37;;;24.90;59.60;;;;;;5129568;27;43952;-72
2022/08/09 07:40:13;;;;;;;1.17;1.17;;;25.00;59.50;;;;;;5119707;27;43824;-72
2022/08/09 07:42:50;;;;;;;1.30;1.20;;;24.90;59.80;;;;;;5110084;27;43949;-73
2022/08/09 07:45:24;;;;;;;1.30;1.30;;;24.80;59.80;;;;;;5128340;27;43876;-72
2022/08/09 07:48:08;;;;;;;4.10;1.50;;;24.80;58.90;;;;;;5129317;27;43412;-72
2022/08/09 07:50:56;;;;;;;1.20;1.20;;;24.80;59.40;;;;;;5129598;27;43847;-72
2022/08/09 07:53:44;;;;;;;1.10;1.10;;;24.70;59.90;;;;;;5129991;27;44038;-74
2022/08/09 07:56:32;;;;;;;1.30;1.30;;;24.60;60.30;;;;;;5105655;27;44002;-73
2022/08/09 07:59:01;;;;;;;1.30;1.30;;;24.60;61.10;;;;;;5109279;27;44079;-72
2022/08/09 08:01:40;;;;;;;1.33;1.20;;;24.60;61.10;;;;;;5109605;27;44053;-72
2022/08/09 08:04:11;;;;;;;1.17;1.17;;;24.50;60.90;;;;;;5127735;27;43978;-72
2022/08/09 08:06:39;;;;;;;1.20;1.20;;;24.50;61.60;;;;;;5128743;27;44018;-73
2022/08/09 08:09:22;;;;;;;1.30;1.30;;;24.50;62.30;;;;;;5122401;27;44060;-74
2022/08/09 08:12:09;;;;;;;1.27;1.27;;;24.60;62.30;;;;;;5072672;27;44042;-73
2022/08/09 08:15:01;;;;;;;1.03;1.03;;;24.70;62.10;;;;;;5128476;27;43888;-74
2022/08/09 08:17:29;;;;;;;2.90;1.30;;;24.80;61.80;;;;;;5123098;27;44934;-73
2022/08/09 08:20:17;;;;;;;1.50;1.40;;;24.90;61.50;;;;;;5109176;27;43921;-74
2022/08/09 08:22:55;;;;;;;1.70;1.60;;;24.90;61.60;;;;;;5119272;27;43807;-72
2022/08/09 08:25:28;;;;;;;1.80;1.47;;;24.80;62.10;;;;;;5129927;27;43876;-73
2022/08/09 08:28:11;;;;;;;1.80;1.20;;;24.80;61.80;;;;;;5128830;27;43916;-72
2022/08/09 08:30:43;;;;;;;1.30;1.30;;;24.70;62.00;;;;;;5128193;27;44054;-73
2022/08/09 08:33:11;;;;;;;1.20;1.20;;;24.70;61.80;;;;;;5102147;27;43411;-74
2022/08/09 08:35:51;;;;;;;1.40;1.30;;;24.60;61.70;;;;;;5104111;27;43354;-72
2022/08/09 08:38:27;;;;;;;1.37;1.37;;;24.60;62.50;;;;;;5106349;27;45058;-72
2022/08/09 08:40:56;;;;;;;1.40;1.33;;;24.60;62.70;;;;;;5128649;27;43923;-72
2022/08/09 08:43:24;;;;;;;1.40;1.40;;;24.50;62.40;;;;;;5128921;27;43464;-73
2022/08/09 08:45:57;;;;;;;1.10;1.10;;;24.50;62.00;;;;;;5129197;27;44059;-72
2022/08/09 08:48:45;;;;;;;1.40;1.27;;;24.50;62.70;;;;;;5128420;27;43963;-73
2022/08/09 08:51:18;;;;;;;1.20;1.20;;;24.50;62.90;;;;;;5128772;27;44464;-73
2022/08/09 08:53:51;;;;;;;1.43;1.30;;;24.60;62.90;;;;;;5081215;27;43956;-73
2022/08/09 08:56:31;;;;;;;1.10;1.10;;;24.60;62.50;;;;;;5118081;27;43439;-72
2022/08/09 08:59:00;;;;;;;1.40;1.40;;;24.70;62.20;;;;;;5128446;27;43619;-73
2022/08/09 09:01:37;;;;;;;1.60;1.30;;;24.80;61.60;;;;;;5109508;27;45140;-73
2022/08/09 09:04:25;;;;;;;1.33;1.27;;;24.80;61.00;;;;;;5128225;27;43935;-73
2022/08/09 09:06:55;;;;;;;1.40;1.30;;;24.80;61.50;;;;;;5115656;27;43867;-72
2022/08/09 09:09:23;;;;;;;1.30;1.30;;;24.70;62.20;;;;;;5101944;27;43914;-72
2022/08/09 09:12:11;;;;;;;1.20;1.20;;;24.70;62.00;;;;;;5114472;27;43407;-72
2022/08/09 09:14:44;;;;;;;1.20;1.20;;;24.70;62.20;;;;;;5128229;27;43365;-71
2022/08/09 09:17:14;;;;;;;1.37;1.37;;;24.60;62.00;;;;;;5118441;27;43373;-72
2022/08/09 09:19:43;;;;;;;1.27;1.27;;;24.60;62.90;;;;;;5118756;27;43947;-72
2022/08/09 09:22:13;;;;;;;1.17;1.17;;;24.50;62.80;;;;;;5105204;27;45910;-72
2022/08/09 09:24:43;;;;;;;1.23;1.23;;;24.50;62.50;;;;;;5108215;27;43949;-72
2022/08/09 09:27:13;;;;;;;1.20;1.20;;;24.50;62.30;;;;;;5108778;27;43935;-74
2022/08/09 09:30:09;;;;;;;1.23;1.23;;;24.50;63.30;;;;;;5108033;27;43810;-72
2022/08/09 09:33:03;;;;;;;1.13;1.13;;;24.50;63.10;;;;;;5108383;27;44036;-72
2022/08/09 09:35:54;;;;;;;1.20;1.20;;;24.50;62.90;;;;;;5089166;27;43945;-73
2022/08/09 09:38:40;;;;;;;1.20;1.20;;;24.70;62.80;;;;;;5108214;27;43354;-72
2022/08/09 09:41:09;;;;;;;1.23;1.23;;;24.80;62.50;;;;;;5108367;27;43916;-72
2022/08/09 09:43:37;;;;;;;1.20;1.20;;;24.80;62.30;;;;;;5103906;27;45414;-74
2022/08/09 09:46:28;;;;;;;1.13;1.13;;;24.80;62.20;;;;;;5131687;27;43977;-71
2022/08/09 09:49:20;;;;;;;1.20;1.20;;;24.70;62.30;;;;;;5121793;27;43860;-72
2022/08/09 09:52:10;;;;;;;1.30;1.30;;;24.70;63.00;;;;;;5092586;27;45242;-73
2022/08/09 09:55:00;;;;;;;1.10;1.10;;;24.70;62.80;;;;;;5121331;27;44083;-72
2022/08/09 09:57:45;;;;;;;1.80;1.27;;;24.70;62.50;;;;;;5106937;27;43953;-73
2022/08/09 10:00:33;;;;;;;1.20;1.20;;;24.60;63.00;;;;;;5111742;27;44097;-73
2022/08/09 10:03:03;;;;;;;1.20;1.20;;;24.50;63.50;;;;;;5119834;27;43891;-72
2022/08/09 10:06:00;;;;;;;1.43;1.43;;;24.60;63.60;;;;;;5131027;27;43855;-72
2022/08/09 10:08:32;;;;;;;2.00;1.17;;;24.70;63.30;;;;;;5087282;27;44122;-72
2022/08/09 10:11:21;;;;;;;1.33;1.30;;;24.80;63.00;;;;;;5115035;27;43986;-73
2022/08/09 10:14:21;;;;;;;1.20;1.20;;;24.80;62.80;;;;;;5130928;27;44030;-72
2022/08/09 10:16:58;;;;;;;1.20;1.20;;;24.80;62.60;;;;;;5131069;27;44114;-72
2022/08/09 10:19:46;;;;;;;1.67;1.23;;;24.70;63.00;;;;;;5130954;27;43417;-74
2022/08/09 10:22:33;;;;;;;2.57;1.43;;;24.70;63.20;;;;;;5118294;27;43359;-73
2022/08/09 10:25:06;;;;;;;5.60;1.30;;;24.70;63.00;;;;;;5125411;27;43684;-72
2022/08/09 10:27:41;;;;;;;1.40;1.40;;;24.60;62.80;;;;;;5130687;27;43371;-73
2022/08/09 10:30:24;;;;;;;4.37;1.33;;;24.50;63.60;;;;;;5093819;27;44049;-73
2022/08/09 10:33:12;;;;;;;1.67;1.30;;;24.50;63.70;;;;;;5111147;27;44065;-73
2022/08/09 10:36:00;;;;;;;1.27;1.23;;;24.50;63.30;;;;;;5110549;27;43998;-72
2022/08/09 10:38:30;;;;;;;1.40;1.30;;;24.50;63.20;;;;;;5110832;27;43910;-72
2022/08/09 10:41:18;;;;;;;1.47;1.43;;;24.50;64.10;;;;;;5091798;27;43985;-73
2022/08/09 10:43:49;;;;;;;6.13;1.67;;;24.50;65.00;;;;;;5110878;27;44062;-72
2022/08/09 10:46:47;;;;;;;1.97;1.40;;;24.50;64.10;;;;;;5105933;27;43889;-73
2022/08/09 10:49:31;;;;;;;2.97;1.50;;;24.70;63.90;;;;;;5110719;27;43946;-73
2022/08/09 10:52:29;;;;;;;4.07;1.50;;;24.70;63.40;;;;;;5110027;27;43953;-73
2022/08/09 10:55:18;;;;;;;1.50;1.40;;;24.80;63.20;;;;;;5111240;27;43897;-72
2022/08/09 10:57:46;;;;;;;2.10;1.50;;;24.80;63.00;;;;;;5116979;27;44678;-73
2022/08/09 11:00:39;;;;;;;1.53;1.43;;;24.70;63.50;;;;;;5086030;27;45201;-71
2022/08/09 11:03:24;;;;;;;1.50;1.40;;;24.70;63.50;;;;;;5097615;27;43474;-73
2022/08/09 11:06:23;;;;;;;2.00;1.30;;;24.70;63.30;;;;;;5121848;27;44066;-73
2022/08/09 11:08:51;;;;;;;1.63;1.47;;;24.60;63.20;;;;;;5110330;27;43919;-72
2022/08/09 11:11:22;;;;;;;2.33;1.43;;;24.50;64.00;;;;;;5109910;27;44153;-73
2022/08/09 11:14:29;;;;;;;2.77;1.50;;;24.60;64.20;;;;;;5091733;27;44026;-72
2022/08/09 11:16:59;;;;;;;5.93;1.60;;;24.60;64.10;;;;;;5094625;27;43920;-73
2022/08/09 11:19:51;;;;;;;3.50;1.50;;;24.70;63.80;;;;;;5127479;27;43996;-73
2022/08/09 11:23:04;;;;;;;3.63;1.70;;;24.80;63.60;;;;;;5091463;27;45650;-72
2022/08/09 11:25:44;;;;;;;1.57;1.47;;;24.80;63.30;;;;;;5097486;27;44049;-72
2022/08/09 11:28:38;;;;;;;2.53;1.43;;;24.70;63.20;;;;;;5122846;27;43991;-73
2022/08/09 11:31:46;;;;;;;7.93;1.63;;;24.70;63.80;;;;;;5091190;27;45418;-72
2022/08/09 11:34:25;;;;;;;1.50;1.40;;;24.70;63.50;;;;;;5112114;27;44025;-72
2022/08/09 11:36:53;;;;;;;1.90;1.77;;;24.60;63.30;;;;;;5109574;27;43929;-72
2022/08/09 11:39:23;;;;;;;1.77;1.53;;;24.60;63.90;;;;;;5091721;27;43359;-73
2022/08/09 11:42:08;;;;;;;3.60;1.70;;;24.60;64.30;;;;;;5109503;27;45703;-72
2022/08/09 11:44:47;;;;;;;1.93;1.57;;;24.50;64.00;;;;;;5104852;27;43817;-72
2022/08/09 11:47:15;;;;;;;3.73;1.87;;;24.50;63.70;;;;;;5129583;27;44006;-72
2022/08/09 11:50:02;;;;;;;3.20;1.90;;;24.50;64.80;;;;;;5111033;27;43840;-72
2022/08/09 11:53:21;;;;;;;5.57;2.13;;;24.50;64.70;;;;;;5129428;27;44315;-72
2022/08/09 11:56:27;;;;;;;5.60;2.07;;;24.50;64.50;;;;;;5109324;27;44068;-72
2022/08/09 11:59:10;;;;;;;4.40;1.73;;;24.70;64.30;;;;;;5127990;27;43424;-72
2022/08/09 12:01:41;;;;;;;2.60;1.70;;;24.80;63.90;;;;;;5124584;27;43949;-73
2022/08/09 12:04:29;;;;;;;3.70;2.10;;;24.80;63.70;;;;;;5123120;27;44008;-72
2022/08/09 12:07:05;;;;;;;5.43;1.93;;;24.80;63.40;;;;;;5129107;27;44185;-72
2022/08/09 12:09:36;;;;;;;9.67;2.00;;;24.80;63.50;;;;;;5113218;27;43930;-73
2022/08/09 12:12:07;;;;;;;5.53;2.00;;;24.70;64.50;;;;;;5109892;27;43943;-73
2022/08/09 12:14:40;;;;;;;6.27;2.43;;;24.70;63.70;;;;;;5113111;27;44015;-73
2022/08/09 12:17:29;;;;;;;6.73;1.87;;;24.70;63.50;;;;;;5129304;27;43889;-72
2022/08/09 12:20:15;;;;;;;3.53;1.73;;;24.60;63.70;;;;;;5106593;27;43969;-73
2022/08/09 12:22:50;;;;;;;4.17;2.10;;;24.60;64.40;;;;;;5129281;27;43928;-72
2022/08/09 12:25:18;;;;;;;4.07;1.80;;;24.60;64.50;;;;;;5109794;27;46107;-74
2022/08/09 12:28:11;;;;;;;5.33;1.90;;;24.70;64.40;;;;;;5115898;27;43813;-72
2022/08/09 12:30:59;;;;;;;12.43;2.37;;;24.80;64.10;;;;;;5105716;27;44096;-71
2022/08/09 12:33:29;;;;;;;8.57;2.53;;;24.80;63.50;;;;;;5109666;27;43754;-73
2022/08/09 12:36:17;;;;;;;9.40;2.30;;;24.80;63.20;;;;;;5108788;27;43681;-73
2022/08/09 12:38:59;;;;;;;17.90;3.40;;;24.80;63.20;;;;;;5115635;27;44096;-73
2022/08/09 12:41:28;;;;;;;13.17;3.30;;;24.70;63.50;;;;;;5109041;27;43962;-73
2022/08/09 12:44:05;;;;;;;11.03;2.80;;;24.70;63.40;;;;;;5090514;27;44023;-72
2022/08/09 12:46:40;;;;;;;15.60;3.20;;;24.60;63.10;;;;;;5108643;27;44011;-72
2022/08/09 12:49:09;;;;;;;19.87;3.77;;;24.60;63.10;;;;;;5108377;27;43985;-73
2022/08/09 12:51:37;;;;;;;18.43;3.43;;;24.60;63.80;;;;;;5125921;27;43891;-72
2022/08/09 12:54:25;;;;;;;11.57;3.13;;;24.50;63.40;;;;;;5110443;27;43981;-72
2022/08/09 12:56:53;;;;;;;13.87;3.23;;;24.50;63.10;;;;;;5086025;28;45438;-73
2022/08/09 12:59:22;;;;;;;18.07;3.30;;;24.50;63.10;;;;;;5079435;27;43952;-72
2022/08/09 13:02:01;;;;;;;18.17;4.03;;;24.50;63.90;;;;;;5101513;27;44042;-72
2022/08/09 13:04:30;;;;;;;11.57;3.50;;;24.50;63.70;;;;;;5108970;27;43914;-73
2022/08/09 13:07:12;;;;;;;13.77;3.63;;;24.60;63.50;;;;;;5110523;27;43903;-73
2022/08/09 13:09:42;;;;;;;16.10;3.83;;;24.70;63.20;;;;;;5124888;27;43943;-73
2022/08/09 13:12:22;;;;;;;10.43;3.10;;;24.80;62.70;;;;;;5113843;27;44076;-73
2022/08/09 13:14:51;;;;;;;8.30;3.17;;;24.90;62.50;;;;;;5115949;27;44099;-73
2022/08/09 13:17:22;;;;;;;11.90;3.30;;;24.90;62.40;;;;;;5089418;27;47148;-72
2022/08/09 13:20:11;;;;;;;10.93;4.33;;;24.80;62.30;;;;;;5108230;27;44429;-72
2022/08/09 13:22:50;;;;;;;11.77;3.00;;;24.80;62.80;;;;;;5118392;27;43985;-73
2022/08/09 13:25:39;;;;;;;10.70;3.07;;;24.70;62.80;;;;;;5089979;27;44233;-73
2022/08/09 13:28:10;;;;;;;12.97;3.23;;;24.70;62.60;;;;;;5108120;27;43849;-72
2022/08/09 13:31:03;;;;;;;12.93;3.17;;;24.60;62.80;;;;;;5103339;27;44070;-72
2022/08/09 13:33:51;;;;;;;11.20;3.00;;;24.60;64.10;;;;;;5108235;27;43958;-72
2022/08/09 13:36:22;;;;;;;11.37;2.97;;;24.60;63.20;;;;;;5128316;27;43941;-73
2022/08/09 13:39:10;;;;;;;10.40;3.23;;;24.50;63.00;;;;;;5106255;27;44021;-72
2022/08/09 13:42:04;;;;;;;10.37;3.00;;;24.50;63.60;;;;;;5127358;27;44065;-72